createdAt,value
2022-08-24T00:00:19.496Z,57.03
2022-08-24T00:03:07.689Z,57.02
2022-08-24T00:05:40.573Z,57.33
2022-08-24T00:08:11.330Z,57.48
2022-08-24T00:10:43.740Z,57.52
2022-08-24T00:13:17.744Z,57.76
2022-08-24T00:16:08.256Z,57.57
2022-08-24T00:18:45.597Z,57.51
2022-08-24T00:21:27.252Z,57.70
2022-08-24T00:23:58.055Z,57.54
2022-08-24T00:26:33.896Z,57.21
2022-08-24T00:29:07.590Z,57.36
2022-08-24T00:31:40.363Z,57.32
2022-08-24T00:34:13.195Z,57.31
2022-08-24T00:36:45.912Z,57.55
2022-08-24T00:39:16.736Z,57.35
2022-08-24T00:41:50.189Z,57.31
2022-08-24T00:44:21.484Z,57.33
2022-08-24T00:46:53.959Z,57.33
2022-08-24T00:49:27.354Z,57.51
2022-08-24T00:51:59.934Z,57.59
2022-08-24T00:54:35.305Z,57.77
2022-08-24T00:57:09.875Z,57.85
2022-08-24T00:59:44.737Z,57.97
2022-08-24T01:02:21.212Z,58.14
2022-08-24T01:04:53.256Z,58.21
2022-08-24T01:07:28.193Z,58.36
2022-08-24T01:10:01.636Z,58.48
2022-08-24T01:12:35.557Z,58.70
2022-08-24T01:15:07.375Z,58.68
2022-08-24T01:17:56.277Z,58.76
2022-08-24T01:20:27.117Z,58.81
2022-08-24T01:23:00.972Z,58.85
2022-08-24T01:25:34.927Z,58.88
2022-08-24T01:28:10.555Z,59.00
2022-08-24T01:30:47.598Z,59.08
2022-08-24T01:33:26.904Z,59.32
2022-08-24T01:35:58.208Z,59.21
2022-08-24T01:38:28.942Z,59.30
2022-08-24T01:41:02.812Z,59.32
2022-08-24T01:43:37.235Z,59.44
2022-08-24T01:46:10.832Z,59.69
2022-08-24T01:48:43.583Z,59.64
2022-08-24T01:51:16.451Z,59.77
2022-08-24T01:53:50.005Z,59.96
2022-08-24T01:56:22.357Z,60.13
2022-08-24T01:58:56.423Z,60.15
2022-08-24T02:01:30.835Z,60.24
2022-08-24T02:04:04.000Z,60.45
2022-08-24T02:06:34.920Z,60.53
2022-08-24T02:09:07.295Z,60.69
2022-08-24T02:11:39.616Z,60.79
2022-08-24T02:14:10.450Z,60.72
2022-08-24T02:16:44.305Z,60.91
2022-08-24T02:19:15.075Z,60.72
2022-08-24T02:21:49.401Z,60.94
2022-08-24T02:24:24.785Z,61.05
2022-08-24T02:26:55.474Z,61.03
2022-08-24T02:29:35.429Z,61.15
2022-08-24T02:32:07.318Z,61.12
2022-08-24T02:34:38.136Z,61.10
2022-08-24T02:37:13.072Z,61.20
2022-08-24T02:39:44.170Z,61.19
2022-08-24T02:42:22.643Z,61.25
2022-08-24T02:44:53.783Z,61.28
2022-08-24T02:47:33.623Z,61.41
2022-08-24T02:50:11.204Z,61.49
2022-08-24T02:52:45.023Z,61.43
2022-08-24T02:55:19.898Z,61.47
2022-08-24T02:57:51.489Z,61.45
2022-08-24T03:00:25.760Z,61.26
2022-08-24T03:02:59.459Z,61.19
2022-08-24T03:05:30.410Z,61.25
2022-08-24T03:08:02.449Z,61.09
2022-08-24T03:10:35.903Z,61.16
2022-08-24T03:13:06.575Z,61.31
2022-08-24T03:15:39.958Z,61.34
2022-08-24T03:18:10.711Z,61.42
2022-08-24T03:20:41.679Z,61.44
2022-08-24T03:23:14.625Z,61.45
2022-08-24T03:25:45.928Z,61.54
2022-08-24T03:28:18.643Z,61.52
2022-08-24T03:30:55.549Z,61.47
2022-08-24T03:33:33.011Z,61.46
2022-08-24T03:36:03.939Z,61.37
2022-08-24T03:38:34.620Z,61.37
2022-08-24T03:41:05.492Z,61.26
2022-08-24T03:43:49.096Z,61.17
2022-08-24T03:46:20.533Z,61.20
2022-08-24T03:48:54.369Z,61.11
2022-08-24T03:51:26.228Z,61.08
2022-08-24T03:54:00.341Z,61.10
2022-08-24T03:56:33.948Z,61.10
2022-08-24T03:59:05.296Z,60.98
2022-08-24T04:01:36.169Z,61.05
2022-08-24T04:04:07.235Z,61.01
2022-08-24T04:06:38.095Z,61.09
2022-08-24T04:09:08.852Z,61.12
2022-08-24T04:11:41.575Z,61.08
2022-08-24T04:14:27.507Z,61.08
2022-08-24T04:16:58.698Z,61.15
2022-08-24T04:19:32.520Z,60.89
2022-08-24T04:22:05.932Z,61.05
2022-08-24T04:24:36.619Z,61.03
2022-08-24T04:27:07.676Z,61.07
2022-08-24T04:29:41.048Z,61.03
2022-08-24T04:32:11.800Z,61.05
2022-08-24T04:34:42.714Z,60.90
2022-08-24T04:37:13.452Z,60.75
2022-08-24T04:39:44.308Z,60.62
2022-08-24T04:42:17.811Z,60.74
2022-08-24T04:44:49.188Z,60.65
2022-08-24T04:47:22.893Z,60.60
2022-08-24T04:49:56.583Z,60.68
2022-08-24T04:52:27.853Z,60.55
2022-08-24T04:54:58.773Z,60.43
2022-08-24T04:57:29.500Z,60.46
2022-08-24T05:00:00.712Z,60.15
2022-08-24T05:02:34.868Z,60.13
2022-08-24T05:05:12.779Z,60.16
2022-08-24T05:07:45.232Z,60.03
2022-08-24T05:10:16.058Z,59.95
2022-08-24T05:12:47.613Z,59.66
2022-08-24T05:15:18.319Z,59.89
2022-08-24T05:17:51.970Z,59.67
2022-08-24T05:20:22.716Z,59.72
2022-08-24T05:22:55.973Z,59.62
2022-08-24T05:25:28.976Z,59.40
2022-08-24T05:28:00.894Z,59.62
2022-08-24T05:30:31.655Z,59.42
2022-08-24T05:33:02.572Z,59.61
2022-08-24T05:35:38.564Z,59.29
2022-08-24T05:38:12.771Z,59.43
2022-08-24T05:40:43.753Z,59.13
2022-08-24T05:43:14.539Z,59.29
2022-08-24T05:45:45.415Z,59.23
2022-08-24T05:48:16.639Z,59.35
2022-08-24T05:50:51.172Z,59.29
2022-08-24T05:53:22.107Z,59.39
2022-08-24T05:55:54.575Z,59.24
2022-08-24T05:58:31.065Z,59.21
2022-08-24T06:01:06.762Z,58.82
2022-08-24T06:03:48.813Z,58.80
2022-08-24T06:06:28.607Z,58.85
2022-08-24T06:09:04.029Z,58.63
2022-08-24T06:11:36.110Z,58.73
2022-08-24T06:14:08.618Z,58.40
2022-08-24T06:16:43.925Z,58.54
2022-08-24T06:19:15.803Z,58.30
2022-08-24T06:21:49.854Z,58.21
2022-08-24T06:24:40.759Z,58.26
2022-08-24T06:27:23.623Z,58.11
2022-08-24T06:29:55.148Z,58.02
2022-08-24T06:32:30.778Z,58.19
2022-08-24T06:35:04.829Z,57.72
2022-08-24T06:37:38.869Z,57.54
2022-08-24T06:40:11.388Z,57.35
2022-08-24T06:42:43.413Z,57.40
2022-08-24T06:45:21.609Z,57.40
2022-08-24T06:47:54.900Z,57.33
2022-08-24T06:50:28.373Z,57.05
2022-08-24T06:53:03.566Z,56.83
2022-08-24T06:55:34.429Z,56.72
2022-08-24T06:58:05.118Z,56.52
2022-08-24T07:00:35.754Z,56.39
2022-08-24T07:03:08.326Z,56.56
2022-08-24T07:05:39.795Z,56.50
2022-08-24T07:08:11.185Z,56.45
2022-08-24T07:10:42.799Z,56.27
2022-08-24T07:13:15.253Z,56.32
2022-08-24T07:15:46.331Z,56.15
2022-08-24T07:18:17.711Z,55.96
2022-08-24T07:20:48.695Z,55.94
2022-08-24T07:23:19.575Z,55.98
2022-08-24T07:25:54.189Z,55.75
2022-08-24T07:28:27.764Z,55.68
2022-08-24T07:31:03.861Z,55.63
2022-08-24T07:33:34.824Z,55.60
2022-08-24T07:36:06.253Z,55.39
2022-08-24T07:38:37.220Z,55.45
2022-08-24T07:41:36.591Z,55.26
2022-08-24T07:44:00.188Z,55.19
2022-08-24T07:46:31.000Z,55.05
2022-08-24T07:49:10.995Z,55.01
2022-08-24T07:51:46.633Z,54.91
2022-08-24T07:54:18.073Z,54.83
2022-08-24T07:56:50.256Z,54.53
2022-08-24T07:59:25.694Z,54.32
2022-08-24T08:01:56.959Z,53.78
2022-08-24T08:04:27.861Z,53.45
2022-08-24T08:06:59.123Z,53.09
2022-08-24T08:09:29.870Z,53.10
2022-08-24T08:12:03.476Z,52.98
2022-08-24T08:14:34.293Z,52.68
2022-08-24T08:17:05.408Z,52.43
2022-08-24T08:19:36.275Z,52.47
2022-08-24T08:22:29.698Z,52.36
2022-08-24T08:25:00.490Z,52.23
2022-08-24T08:27:31.281Z,52.13
2022-08-24T08:30:03.558Z,51.90
2022-08-24T08:32:34.539Z,51.24
2022-08-24T08:35:05.614Z,51.28
2022-08-24T08:40:14.775Z,50.61
2022-08-24T08:42:48.916Z,50.51
2022-08-24T08:45:27.507Z,50.12
2022-08-24T08:48:17.807Z,50.06
2022-08-24T08:51:00.175Z,50.04
2022-08-24T08:53:52.828Z,49.64
2022-08-24T08:56:24.576Z,49.39
2022-08-24T08:59:01.703Z,49.50
2022-08-24T09:01:44.291Z,49.05
2022-08-24T09:04:27.570Z,49.08
2022-08-24T09:07:11.319Z,48.48
2022-08-24T09:09:47.863Z,48.02
2022-08-24T09:12:23.320Z,47.76
2022-08-24T09:15:07.066Z,47.59
2022-08-24T09:17:46.468Z,47.61
2022-08-24T09:20:27.141Z,47.62
2022-08-24T09:23:02.251Z,47.50
2022-08-24T09:25:41.290Z,47.27
2022-08-24T09:28:18.590Z,47.09
2022-08-24T09:30:59.930Z,46.71
2022-08-24T09:33:31.653Z,46.56
2022-08-24T09:36:09.758Z,46.35
2022-08-24T09:38:52.325Z,46.18
2022-08-24T09:41:36.547Z,46.08
2022-08-24T09:44:12.874Z,45.69
2022-08-24T09:46:58.115Z,45.57
2022-08-24T09:49:42.794Z,45.50
2022-08-24T09:52:30.250Z,45.12
2022-08-24T09:55:09.276Z,44.75
2022-08-24T09:57:59.905Z,44.59
2022-08-24T10:00:34.821Z,44.43
2022-08-24T10:03:15.337Z,44.03
2022-08-24T10:05:54.680Z,43.95
2022-08-24T10:08:29.564Z,43.45
2022-08-24T10:11:04.297Z,43.30
2022-08-24T10:13:38.705Z,42.72
2022-08-24T10:16:18.820Z,42.71
2022-08-24T10:18:53.904Z,42.24
2022-08-24T10:21:30.851Z,41.79
2022-08-24T10:24:08.907Z,41.50
2022-08-24T10:26:42.207Z,41.16
2022-08-24T10:29:23.738Z,41.06
2022-08-24T10:31:58.191Z,40.99
2022-08-24T10:34:36.553Z,40.87
2022-08-24T10:37:11.708Z,40.29
2022-08-24T10:40:02.933Z,40.42
2022-08-24T10:43:01.620Z,40.29
2022-08-24T10:45:46.254Z,39.50
2022-08-24T10:48:24.222Z,39.31
2022-08-24T10:50:57.427Z,38.91
2022-08-24T10:53:28.924Z,38.91
2022-08-24T10:56:10.735Z,38.61
2022-08-24T10:58:47.830Z,38.42
2022-08-24T11:01:20.961Z,38.54
2022-08-24T11:04:01.172Z,38.40
2022-08-24T11:06:35.116Z,38.01
2022-08-24T11:09:08.737Z,37.41
2022-08-24T11:11:40.633Z,37.27
2022-08-24T11:14:24.228Z,37.24
2022-08-24T11:16:57.966Z,37.05
2022-08-24T11:19:33.565Z,36.80
2022-08-24T11:22:05.521Z,36.44
2022-08-24T11:24:41.810Z,36.25
2022-08-24T11:27:19.955Z,36.15
2022-08-24T11:30:03.453Z,35.71
2022-08-24T11:32:38.026Z,35.70
2022-08-24T11:35:10.065Z,35.80
2022-08-24T11:37:40.983Z,35.45
2022-08-24T11:40:12.384Z,35.27
2022-08-24T11:42:46.626Z,34.96
2022-08-24T11:45:18.117Z,34.70
2022-08-24T11:47:53.040Z,34.78
2022-08-24T11:50:30.234Z,34.81
2022-08-24T11:53:13.184Z,34.65
2022-08-24T11:55:47.372Z,34.51
2022-08-24T11:58:25.736Z,34.46
2022-08-24T12:00:59.437Z,34.08
2022-08-24T12:03:38.651Z,33.85
2022-08-24T12:06:12.738Z,33.75
2022-08-24T12:08:44.483Z,33.82
2022-08-24T12:11:18.634Z,33.74
2022-08-24T12:13:52.882Z,33.37
2022-08-24T12:16:26.751Z,33.22
2022-08-24T12:19:05.292Z,33.02
2022-08-24T12:21:41.398Z,32.98
2022-08-24T12:24:15.693Z,33.03
2022-08-24T12:26:47.573Z,32.97
2022-08-24T12:29:19.886Z,32.90
2022-08-24T12:31:55.301Z,32.82
2022-08-24T12:34:27.747Z,32.53
2022-08-24T12:37:03.452Z,32.87
2022-08-24T12:39:43.701Z,32.72
2022-08-24T12:42:20.412Z,32.89
2022-08-24T12:44:55.502Z,32.90
2022-08-24T12:47:27.827Z,32.86
2022-08-24T12:49:59.420Z,32.88
2022-08-24T12:52:59.016Z,32.46
2022-08-24T12:55:52.376Z,32.43
2022-08-24T12:58:34.983Z,32.50
2022-08-24T13:01:06.984Z,32.45
2022-08-24T13:03:38.459Z,32.51
2022-08-24T13:06:10.442Z,32.37
2022-08-24T13:08:42.108Z,32.60
2022-08-24T13:11:14.726Z,32.22
2022-08-24T13:13:50.752Z,32.61
2022-08-24T13:16:44.263Z,32.61
2022-08-24T13:19:16.932Z,32.54
2022-08-24T13:21:50.893Z,32.69
2022-08-24T13:24:55.537Z,32.51
2022-08-24T13:27:52.385Z,32.58
2022-08-24T13:30:30.536Z,32.74
2022-08-24T13:33:03.409Z,32.54
2022-08-24T13:35:37.166Z,32.41
2022-08-24T13:38:25.813Z,32.46
2022-08-24T13:40:58.071Z,32.49
2022-08-24T13:43:32.379Z,32.59
2022-08-24T13:46:04.730Z,32.58
2022-08-24T13:48:39.827Z,32.69
2022-08-24T13:51:21.510Z,32.53
2022-08-24T13:54:05.552Z,32.61
2022-08-24T13:56:51.246Z,32.58
2022-08-24T13:59:23.771Z,32.38
2022-08-24T14:02:06.658Z,32.57
2022-08-24T14:04:43.899Z,32.30
2022-08-24T14:07:19.974Z,32.42
2022-08-24T14:09:58.585Z,32.27
2022-08-24T14:12:48.208Z,32.34
2022-08-24T14:15:21.374Z,32.24
2022-08-24T14:17:55.775Z,32.23
2022-08-24T14:20:57.205Z,32.23
2022-08-24T14:23:40.319Z,32.22
2022-08-24T14:26:28.304Z,32.28
2022-08-24T14:29:03.225Z,32.27
2022-08-24T14:31:34.349Z,32.38
2022-08-24T14:34:08.988Z,32.26
2022-08-24T14:36:46.268Z,32.42
2022-08-24T14:39:23.481Z,32.26
2022-08-24T14:42:02.729Z,32.48
2022-08-24T14:44:54.427Z,32.48
2022-08-24T14:47:43.700Z,32.56
2022-08-24T14:50:17.396Z,32.61
2022-08-24T14:52:55.004Z,32.57
2022-08-24T14:55:30.090Z,32.55
2022-08-24T14:58:06.195Z,32.79
2022-08-24T15:00:49.185Z,32.55
2022-08-24T15:03:48.744Z,32.86
2022-08-24T15:06:27.768Z,33.21
2022-08-24T15:09:09.122Z,33.02
2022-08-24T15:11:44.222Z,33.30
2022-08-24T15:14:22.578Z,33.11
2022-08-24T15:16:59.026Z,33.17
2022-08-24T15:19:37.548Z,33.23
2022-08-24T15:22:09.461Z,33.40
2022-08-24T15:24:41.617Z,33.45
2022-08-24T15:27:14.690Z,33.52
2022-08-24T15:29:54.913Z,33.60
2022-08-24T15:32:28.611Z,33.49
2022-08-24T15:34:59.708Z,33.27
2022-08-24T15:37:40.268Z,33.22
2022-08-24T15:40:19.395Z,33.49
2022-08-24T15:42:52.425Z,33.29
2022-08-24T15:45:25.202Z,33.52
2022-08-24T15:47:56.051Z,33.40
2022-08-24T15:50:30.462Z,33.79
2022-08-24T15:53:01.691Z,33.53
2022-08-24T15:55:38.115Z,33.61
2022-08-24T15:58:16.647Z,33.56
2022-08-24T16:01:05.532Z,33.65
2022-08-24T16:03:46.962Z,33.65
2022-08-24T16:06:23.240Z,33.45
2022-08-24T16:09:03.152Z,33.55
2022-08-24T16:11:39.947Z,33.70
2022-08-24T16:14:16.036Z,33.71
2022-08-24T16:16:51.408Z,33.51
2022-08-24T16:19:25.566Z,33.73
2022-08-24T16:21:58.519Z,33.80
2022-08-24T16:24:36.992Z,33.88
2022-08-24T16:27:08.991Z,33.78
2022-08-24T16:29:53.485Z,33.72
2022-08-24T16:32:32.407Z,33.79
2022-08-24T16:35:17.596Z,33.66
2022-08-24T16:37:48.322Z,33.70
2022-08-24T16:40:21.611Z,33.86
2022-08-24T16:42:55.635Z,33.84
2022-08-24T16:45:26.434Z,33.96
2022-08-24T16:47:57.316Z,33.89
2022-08-24T16:50:28.056Z,34.13
2022-08-24T16:52:58.879Z,33.96
2022-08-24T16:55:32.024Z,34.24
2022-08-24T16:58:05.053Z,34.42
2022-08-24T17:00:36.109Z,34.44
2022-08-24T17:03:08.232Z,34.42
2022-08-24T17:05:40.525Z,34.59
2022-08-24T17:08:12.925Z,34.54
2022-08-24T17:10:46.507Z,34.70
2022-08-24T17:13:39.346Z,34.60
2022-08-24T17:16:08.086Z,34.70
2022-08-24T17:18:38.829Z,34.81
2022-08-24T17:21:09.691Z,34.64
2022-08-24T17:23:40.820Z,34.72
2022-08-24T17:26:20.485Z,34.86
2022-08-24T17:28:54.698Z,34.82
2022-08-24T17:31:26.026Z,34.86
2022-08-24T17:33:57.687Z,34.89
2022-08-24T17:36:31.153Z,34.98
2022-08-24T17:39:03.884Z,35.06
2022-08-24T17:41:34.771Z,35.11
2022-08-24T17:44:12.891Z,35.18
2022-08-24T17:46:43.632Z,35.23
2022-08-24T17:49:14.424Z,35.18
2022-08-24T17:51:45.104Z,35.32
2022-08-24T17:54:17.787Z,35.25
2022-08-24T17:56:51.075Z,35.55
2022-08-24T17:59:30.878Z,35.43
2022-08-24T18:02:03.087Z,35.53
2022-08-24T18:04:34.507Z,35.55
2022-08-24T18:07:06.501Z,35.54
2022-08-24T18:09:46.264Z,35.76
2022-08-24T18:12:17.302Z,35.75
2022-08-24T18:14:48.001Z,35.77
2022-08-24T18:17:22.707Z,35.87
2022-08-24T18:19:54.216Z,35.85
2022-08-24T18:22:24.953Z,35.91
2022-08-24T18:24:55.580Z,36.05
2022-08-24T18:27:28.381Z,36.00
2022-08-24T18:30:01.373Z,36.16
2022-08-24T18:32:37.736Z,36.14
2022-08-24T18:35:10.885Z,36.20
2022-08-24T18:37:41.640Z,36.17
2022-08-24T18:40:20.368Z,36.27
2022-08-24T18:42:52.480Z,36.34
2022-08-24T18:45:32.291Z,36.40
2022-08-24T18:48:03.631Z,36.50
2022-08-24T18:50:37.702Z,36.31
2022-08-24T18:53:11.418Z,36.47
2022-08-24T18:55:44.215Z,36.52
2022-08-24T18:58:16.212Z,36.84
2022-08-24T19:00:47.229Z,36.64
2022-08-24T19:03:20.900Z,36.72
2022-08-24T19:05:51.732Z,36.64
2022-08-24T19:08:23.247Z,36.73
2022-08-24T19:10:54.076Z,36.92
2022-08-24T19:13:24.813Z,37.08
2022-08-24T19:15:55.623Z,37.08
2022-08-24T19:18:26.423Z,37.10
2022-08-24T19:20:57.796Z,37.10
2022-08-24T19:23:29.007Z,37.23
2022-08-24T19:25:59.938Z,37.39
2022-08-24T19:28:31.559Z,37.57
2022-08-24T19:31:05.882Z,37.45
2022-08-24T19:33:37.363Z,37.64
2022-08-24T19:36:13.477Z,37.81
2022-08-24T19:38:44.123Z,37.80
2022-08-24T19:41:15.839Z,37.48
2022-08-24T19:44:06.307Z,38.04
2022-08-24T19:46:37.179Z,37.83
2022-08-24T19:49:08.584Z,38.01
2022-08-24T19:51:39.800Z,37.74
2022-08-24T19:54:10.748Z,38.03
2022-08-24T19:56:41.568Z,37.99
2022-08-24T19:59:19.588Z,37.99
2022-08-24T20:01:50.337Z,38.37
2022-08-24T20:04:21.390Z,38.34
2022-08-24T20:06:52.146Z,38.73
2022-08-24T20:09:23.654Z,38.36
2022-08-24T20:11:54.492Z,38.81
2022-08-24T20:14:25.322Z,38.66
2022-08-24T20:16:56.307Z,38.71
2022-08-24T20:19:27.109Z,39.08
2022-08-24T20:21:57.800Z,39.17
2022-08-24T20:24:30.500Z,39.19
2022-08-24T20:27:01.211Z,39.15
2022-08-24T20:29:32.155Z,39.39
2022-08-24T20:32:02.930Z,39.61
2022-08-24T20:34:33.749Z,39.43
2022-08-24T20:37:04.798Z,39.52
2022-08-24T20:39:35.682Z,39.54
2022-08-24T20:42:09.620Z,39.71
2022-08-24T20:44:43.271Z,39.87
2022-08-24T20:47:14.094Z,39.77
2022-08-24T20:49:45.025Z,39.96
2022-08-24T20:52:15.755Z,40.00
2022-08-24T20:54:46.531Z,39.85
2022-08-24T20:57:18.561Z,39.98
2022-08-24T20:59:49.293Z,40.24
2022-08-24T21:02:20.078Z,40.22
2022-08-24T21:04:50.713Z,40.26
2022-08-24T21:07:21.564Z,40.41
2022-08-24T21:09:52.328Z,40.52
2022-08-24T21:12:23.030Z,40.55
2022-08-24T21:14:53.708Z,40.69
2022-08-24T21:17:24.561Z,40.79
2022-08-24T21:19:55.548Z,41.06
2022-08-24T21:22:26.617Z,40.83
2022-08-24T21:24:57.283Z,40.87
2022-08-24T21:27:28.050Z,41.06
2022-08-24T21:29:58.780Z,41.10
2022-08-24T21:32:46.912Z,41.37
2022-08-24T21:35:17.686Z,41.47
2022-08-24T21:37:48.383Z,41.43
2022-08-24T21:40:20.227Z,41.29
2022-08-24T21:42:51.549Z,41.62
2022-08-24T21:45:22.560Z,41.76
2022-08-24T21:47:53.627Z,41.60
2022-08-24T21:50:25.452Z,41.76
2022-08-24T21:52:56.878Z,41.76
2022-08-24T21:55:27.961Z,41.90
2022-08-24T21:57:58.800Z,41.99
2022-08-24T22:00:29.612Z,42.03
2022-08-24T22:03:00.715Z,41.86
2022-08-24T22:05:32.308Z,42.01
2022-08-24T22:08:03.283Z,42.15
2022-08-24T22:10:34.272Z,42.18
2022-08-24T22:13:05.794Z,42.15
2022-08-24T22:15:37.272Z,42.20
2022-08-24T22:18:08.279Z,42.16
2022-08-24T22:20:39.252Z,42.14
2022-08-24T22:23:10.119Z,42.00
2022-08-24T22:25:40.868Z,42.42
2022-08-24T22:28:11.868Z,42.27
2022-08-24T22:30:44.728Z,42.29
2022-08-24T22:33:16.090Z,42.50
2022-08-24T22:35:47.063Z,42.49
2022-08-24T22:38:17.947Z,42.47
2022-08-24T22:40:51.249Z,42.67
2022-08-24T22:43:24.939Z,43.00
2022-08-24T22:45:56.116Z,42.97
2022-08-24T22:48:27.037Z,43.03
2022-08-24T22:50:58.031Z,43.21
2022-08-24T22:53:28.724Z,43.34
2022-08-24T22:56:00.941Z,43.35
2022-08-24T22:58:31.996Z,43.45
2022-08-24T23:01:04.286Z,43.54
2022-08-24T23:03:37.136Z,43.72
2022-08-24T23:06:09.104Z,43.80
2022-08-24T23:08:40.053Z,43.87
2022-08-24T23:11:13.269Z,43.88
2022-08-24T23:13:44.272Z,44.04
2022-08-24T23:16:15.323Z,43.99
2022-08-24T23:19:03.752Z,44.21
2022-08-24T23:21:34.605Z,44.25
2022-08-24T23:24:05.779Z,44.40
2022-08-24T23:26:38.327Z,44.40
2022-08-24T23:29:09.504Z,44.36
2022-08-24T23:31:40.785Z,44.54
2022-08-24T23:34:11.843Z,44.54
2022-08-24T23:36:42.769Z,44.66
2022-08-24T23:39:21.301Z,44.68
2022-08-24T23:41:53.663Z,44.68
2022-08-24T23:44:26.076Z,44.72
2022-08-24T23:46:57.213Z,44.76
2022-08-24T23:49:28.400Z,44.78
2022-08-24T23:51:59.699Z,44.78
2022-08-24T23:54:30.605Z,44.88
2022-08-24T23:57:04.184Z,44.81
2022-08-24T23:59:35.508Z,44.89
